sensor_id;sensor_type;location;lat;lon;timestamp;P1;durP1;ratioP1;P2;durP2;ratioP2
63346;SDS011;49472;49.880;8.650;2022-11-15T00:00:31;13.77;;;12.57;;
63346;SDS011;49472;49.880;8.650;2022-11-15T00:02:57;14.87;;;13.57;;
63346;SDS011;49472;49.880;8.650;2022-11-15T00:05:22;13.77;;;12.57;;
63346;SDS011;49472;49.880;8.650;2022-11-15T00:07:47;13.77;;;12.67;;
63346;SDS011;49472;49.880;8.650;2022-11-15T00:10:12;13.63;;;12.73;;
63346;SDS011;49472;49.880;8.650;2022-11-15T00:12:38;13.97;;;12.93;;
63346;SDS011;49472;49.880;8.650;2022-11-15T00:15:03;14.20;;;12.50;;
63346;SDS011;49472;49.880;8.650;2022-11-15T00:17:29;13.87;;;12.77;;
63346;SDS011;49472;49.880;8.650;2022-11-15T00:19:54;14.20;;;12.90;;
63346;SDS011;49472;49.880;8.650;2022-11-15T00:22:20;13.90;;;12.50;;
63346;SDS011;49472;49.880;8.650;2022-11-15T00:24:45;13.07;;;12.17;;
63346;SDS011;49472;49.880;8.650;2022-11-15T00:27:10;13.93;;;12.83;;
63346;SDS011;49472;49.880;8.650;2022-11-15T00:29:36;14.40;;;13.00;;
63346;SDS011;49472;49.880;8.650;2022-11-15T00:32:03;15.57;;;12.30;;
63346;SDS011;49472;49.880;8.650;2022-11-15T00:34:29;16.90;;;12.90;;
63346;SDS011;49472;49.880;8.650;2022-11-15T00:36:54;16.33;;;13.13;;
63346;SDS011;49472;49.880;8.650;2022-11-15T00:39:19;14.03;;;12.93;;
63346;SDS011;49472;49.880;8.650;2022-11-15T00:41:45;13.97;;;12.83;;
63346;SDS011;49472;49.880;8.650;2022-11-15T00:44:10;14.63;;;13.30;;
63346;SDS011;49472;49.880;8.650;2022-11-15T00:46:35;14.07;;;12.97;;
63346;SDS011;49472;49.880;8.650;2022-11-15T00:49:00;13.20;;;11.90;;
63346;SDS011;49472;49.880;8.650;2022-11-15T00:51:26;14.30;;;13.03;;
63346;SDS011;49472;49.880;8.650;2022-11-15T00:53:51;16.67;;;14.80;;
63346;SDS011;49472;49.880;8.650;2022-11-15T00:56:16;13.50;;;12.50;;
63346;SDS011;49472;49.880;8.650;2022-11-15T00:58:42;13.60;;;12.50;;
63346;SDS011;49472;49.880;8.650;2022-11-15T01:01:08;13.90;;;12.70;;
63346;SDS011;49472;49.880;8.650;2022-11-15T01:03:34;14.10;;;12.90;;
63346;SDS011;49472;49.880;8.650;2022-11-15T01:06:00;14.43;;;12.93;;
63346;SDS011;49472;49.880;8.650;2022-11-15T01:08:25;16.37;;;14.13;;
63346;SDS011;49472;49.880;8.650;2022-11-15T01:10:51;15.23;;;13.63;;
63346;SDS011;49472;49.880;8.650;2022-11-15T01:13:16;21.30;;;13.30;;
63346;SDS011;49472;49.880;8.650;2022-11-15T01:15:41;16.90;;;13.20;;
63346;SDS011;49472;49.880;8.650;2022-11-15T01:18:07;14.53;;;13.23;;
63346;SDS011;49472;49.880;8.650;2022-11-15T01:20:32;18.73;;;13.73;;
63346;SDS011;49472;49.880;8.650;2022-11-15T01:22:58;13.50;;;12.60;;
63346;SDS011;49472;49.880;8.650;2022-11-15T01:25:23;14.47;;;13.37;;
63346;SDS011;49472;49.880;8.650;2022-11-15T01:27:48;13.70;;;12.60;;
63346;SDS011;49472;49.880;8.650;2022-11-15T01:30:13;14.23;;;13.13;;
63346;SDS011;49472;49.880;8.650;2022-11-15T01:32:39;15.03;;;13.53;;
63346;SDS011;49472;49.880;8.650;2022-11-15T01:35:04;15.00;;;13.50;;
63346;SDS011;49472;49.880;8.650;2022-11-15T01:37:30;15.30;;;13.93;;
63346;SDS011;49472;49.880;8.650;2022-11-15T01:39:55;16.00;;;13.00;;
63346;SDS011;49472;49.880;8.650;2022-11-15T01:42:20;13.83;;;12.80;;
63346;SDS011;49472;49.880;8.650;2022-11-15T01:44:50;14.03;;;12.97;;
63346;SDS011;49472;49.880;8.650;2022-11-15T01:47:17;13.93;;;12.67;;
63346;SDS011;49472;49.880;8.650;2022-11-15T01:49:55;14.27;;;13.17;;
63346;SDS011;49472;49.880;8.650;2022-11-15T01:52:28;14.63;;;13.27;;
63346;SDS011;49472;49.880;8.650;2022-11-15T01:55:05;15.50;;;13.10;;
63346;SDS011;49472;49.880;8.650;2022-11-15T01:57:33;14.20;;;13.00;;
63346;SDS011;49472;49.880;8.650;2022-11-15T02:00:00;14.03;;;12.67;;
63346;SDS011;49472;49.880;8.650;2022-11-15T02:02:26;14.67;;;13.00;;
63346;SDS011;49472;49.880;8.650;2022-11-15T02:04:51;14.00;;;12.90;;
63346;SDS011;49472;49.880;8.650;2022-11-15T02:07:17;14.30;;;13.00;;
63346;SDS011;49472;49.880;8.650;2022-11-15T02:09:44;14.30;;;13.20;;
63346;SDS011;49472;49.880;8.650;2022-11-15T02:12:12;14.10;;;12.77;;
63346;SDS011;49472;49.880;8.650;2022-11-15T02:14:43;14.40;;;13.17;;
63346;SDS011;49472;49.880;8.650;2022-11-15T02:30:47;12.70;;;11.60;;
63346;SDS011;49472;49.880;8.650;2022-11-15T02:36:01;14.80;;;13.43;;
63346;SDS011;49472;49.880;8.650;2022-11-15T02:38:40;13.57;;;12.47;;
63346;SDS011;49472;49.880;8.650;2022-11-15T02:41:17;13.53;;;12.63;;
63346;SDS011;49472;49.880;8.650;2022-11-15T02:43:50;13.13;;;12.33;;
63346;SDS011;49472;49.880;8.650;2022-11-15T02:49:17;13.47;;;12.37;;
63346;SDS011;49472;49.880;8.650;2022-11-15T02:51:43;14.10;;;13.03;;
63346;SDS011;49472;49.880;8.650;2022-11-15T02:54:15;14.73;;;13.63;;
63346;SDS011;49472;49.880;8.650;2022-11-15T02:56:46;13.67;;;12.67;;
63346;SDS011;49472;49.880;8.650;2022-11-15T03:12:59;14.50;;;13.37;;
63346;SDS011;49472;49.880;8.650;2022-11-15T03:15:44;14.13;;;13.03;;
63346;SDS011;49472;49.880;8.650;2022-11-15T03:18:19;14.73;;;13.33;;
63346;SDS011;49472;49.880;8.650;2022-11-15T03:20:48;13.80;;;12.77;;
63346;SDS011;49472;49.880;8.650;2022-11-15T03:23:15;14.20;;;13.10;;
63346;SDS011;49472;49.880;8.650;2022-11-15T03:25:43;15.10;;;13.57;;
63346;SDS011;49472;49.880;8.650;2022-11-15T03:28:14;15.70;;;14.03;;
63346;SDS011;49472;49.880;8.650;2022-11-15T03:30:43;19.13;;;14.47;;
63346;SDS011;49472;49.880;8.650;2022-11-15T03:33:11;16.07;;;14.40;;
63346;SDS011;49472;49.880;8.650;2022-11-15T03:35:38;14.43;;;13.10;;
63346;SDS011;49472;49.880;8.650;2022-11-15T03:40:42;14.63;;;13.30;;
63346;SDS011;49472;49.880;8.650;2022-11-15T03:45:57;15.20;;;13.90;;
63346;SDS011;49472;49.880;8.650;2022-11-15T03:48:27;15.70;;;14.40;;
63346;SDS011;49472;49.880;8.650;2022-11-15T03:50:58;14.90;;;13.70;;
63346;SDS011;49472;49.880;8.650;2022-11-15T03:53:24;15.00;;;13.90;;
63346;SDS011;49472;49.880;8.650;2022-11-15T03:55:49;16.17;;;14.80;;
63346;SDS011;49472;49.880;8.650;2022-11-15T03:58:15;16.33;;;14.70;;
63346;SDS011;49472;49.880;8.650;2022-11-15T04:00:40;17.40;;;15.70;;
63346;SDS011;49472;49.880;8.650;2022-11-15T04:03:05;19.03;;;15.03;;
63346;SDS011;49472;49.880;8.650;2022-11-15T04:05:32;17.13;;;15.43;;
63346;SDS011;49472;49.880;8.650;2022-11-15T04:07:57;17.00;;;15.23;;
63346;SDS011;49472;49.880;8.650;2022-11-15T04:10:22;16.50;;;15.20;;
63346;SDS011;49472;49.880;8.650;2022-11-15T04:12:48;17.40;;;15.27;;
63346;SDS011;49472;49.880;8.650;2022-11-15T04:15:15;16.57;;;15.07;;
63346;SDS011;49472;49.880;8.650;2022-11-15T04:23:03;18.10;;;16.37;;
63346;SDS011;49472;49.880;8.650;2022-11-15T04:25:54;18.27;;;16.37;;
63346;SDS011;49472;49.880;8.650;2022-11-15T04:28:21;17.57;;;15.93;;
63346;SDS011;49472;49.880;8.650;2022-11-15T04:30:47;23.37;;;17.13;;
63346;SDS011;49472;49.880;8.650;2022-11-15T04:33:12;17.00;;;15.50;;
63346;SDS011;49472;49.880;8.650;2022-11-15T04:35:38;17.67;;;16.00;;
63346;SDS011;49472;49.880;8.650;2022-11-15T04:38:04;20.10;;;15.33;;
63346;SDS011;49472;49.880;8.650;2022-11-15T04:40:32;17.23;;;15.57;;
63346;SDS011;49472;49.880;8.650;2022-11-15T04:42:57;21.73;;;15.90;;
63346;SDS011;49472;49.880;8.650;2022-11-15T04:45:23;17.70;;;16.30;;
63346;SDS011;49472;49.880;8.650;2022-11-15T04:47:48;18.63;;;16.50;;
63346;SDS011;49472;49.880;8.650;2022-11-15T04:50:14;19.90;;;15.27;;
63346;SDS011;49472;49.880;8.650;2022-11-15T04:52:44;16.20;;;14.70;;
63346;SDS011;49472;49.880;8.650;2022-11-15T04:55:16;15.97;;;14.67;;
63346;SDS011;49472;49.880;8.650;2022-11-15T04:57:41;17.63;;;15.90;;
63346;SDS011;49472;49.880;8.650;2022-11-15T05:00:08;17.17;;;15.77;;
63346;SDS011;49472;49.880;8.650;2022-11-15T05:02:38;18.50;;;16.17;;
63346;SDS011;49472;49.880;8.650;2022-11-15T05:05:23;18.23;;;16.43;;
63346;SDS011;49472;49.880;8.650;2022-11-15T05:07:49;18.00;;;16.40;;
63346;SDS011;49472;49.880;8.650;2022-11-15T05:10:14;18.43;;;16.70;;
63346;SDS011;49472;49.880;8.650;2022-11-15T05:12:39;17.60;;;16.10;;
63346;SDS011;49472;49.880;8.650;2022-11-15T05:15:05;17.23;;;15.83;;
63346;SDS011;49472;49.880;8.650;2022-11-15T05:17:31;17.07;;;15.53;;
63346;SDS011;49472;49.880;8.650;2022-11-15T05:19:56;18.50;;;16.83;;
63346;SDS011;49472;49.880;8.650;2022-11-15T05:22:21;18.40;;;16.50;;
63346;SDS011;49472;49.880;8.650;2022-11-15T05:24:47;17.90;;;16.10;;
63346;SDS011;49472;49.880;8.650;2022-11-15T05:27:12;18.27;;;16.63;;
63346;SDS011;49472;49.880;8.650;2022-11-15T05:29:38;17.10;;;15.70;;
63346;SDS011;49472;49.880;8.650;2022-11-15T05:32:04;17.30;;;15.70;;
63346;SDS011;49472;49.880;8.650;2022-11-15T05:34:31;16.90;;;15.30;;
63346;SDS011;49472;49.880;8.650;2022-11-15T05:36:57;17.40;;;15.67;;
63346;SDS011;49472;49.880;8.650;2022-11-15T05:39:22;16.90;;;15.17;;
63346;SDS011;49472;49.880;8.650;2022-11-15T05:41:48;16.60;;;15.30;;
63346;SDS011;49472;49.880;8.650;2022-11-15T05:44:19;17.70;;;15.87;;
63346;SDS011;49472;49.880;8.650;2022-11-15T05:46:47;19.13;;;16.73;;
63346;SDS011;49472;49.880;8.650;2022-11-15T05:49:15;15.43;;;14.30;;
63346;SDS011;49472;49.880;8.650;2022-11-15T05:51:44;16.40;;;15.03;;
63346;SDS011;49472;49.880;8.650;2022-11-15T05:54:12;16.13;;;14.70;;
63346;SDS011;49472;49.880;8.650;2022-11-15T05:56:38;16.33;;;14.73;;
63346;SDS011;49472;49.880;8.650;2022-11-15T05:59:04;15.50;;;14.20;;
63346;SDS011;49472;49.880;8.650;2022-11-15T06:01:30;16.30;;;15.00;;
63346;SDS011;49472;49.880;8.650;2022-11-15T06:03:56;17.33;;;15.83;;
63346;SDS011;49472;49.880;8.650;2022-11-15T06:06:21;18.03;;;16.40;;
63346;SDS011;49472;49.880;8.650;2022-11-15T06:08:46;16.60;;;15.13;;
63346;SDS011;49472;49.880;8.650;2022-11-15T06:11:12;17.63;;;16.00;;
63346;SDS011;49472;49.880;8.650;2022-11-15T06:13:38;18.60;;;16.27;;
63346;SDS011;49472;49.880;8.650;2022-11-15T06:16:03;16.83;;;15.43;;
63346;SDS011;49472;49.880;8.650;2022-11-15T06:18:31;17.93;;;16.10;;
63346;SDS011;49472;49.880;8.650;2022-11-15T06:20:58;18.10;;;16.57;;
63346;SDS011;49472;49.880;8.650;2022-11-15T06:23:24;18.97;;;15.90;;
63346;SDS011;49472;49.880;8.650;2022-11-15T06:25:50;17.63;;;15.97;;
63346;SDS011;49472;49.880;8.650;2022-11-15T06:28:15;16.83;;;15.53;;
63346;SDS011;49472;49.880;8.650;2022-11-15T06:30:40;19.30;;;16.77;;
63346;SDS011;49472;49.880;8.650;2022-11-15T06:33:05;18.33;;;16.83;;
63346;SDS011;49472;49.880;8.650;2022-11-15T06:35:32;19.67;;;16.87;;
63346;SDS011;49472;49.880;8.650;2022-11-15T06:38:05;16.47;;;15.13;;
63346;SDS011;49472;49.880;8.650;2022-11-15T06:40:33;15.57;;;14.27;;
63346;SDS011;49472;49.880;8.650;2022-11-15T06:43:00;17.07;;;15.47;;
63346;SDS011;49472;49.880;8.650;2022-11-15T06:45:25;15.47;;;14.23;;
63346;SDS011;49472;49.880;8.650;2022-11-15T06:47:51;16.70;;;15.30;;
63346;SDS011;49472;49.880;8.650;2022-11-15T06:50:16;17.07;;;15.40;;
63346;SDS011;49472;49.880;8.650;2022-11-15T06:52:41;16.30;;;15.07;;
63346;SDS011;49472;49.880;8.650;2022-11-15T06:55:07;18.57;;;16.30;;
63346;SDS011;49472;49.880;8.650;2022-11-15T06:57:33;16.67;;;15.07;;
63346;SDS011;49472;49.880;8.650;2022-11-15T06:59:58;15.83;;;14.57;;
63346;SDS011;49472;49.880;8.650;2022-11-15T07:02:23;17.03;;;15.63;;
63346;SDS011;49472;49.880;8.650;2022-11-15T07:04:50;15.83;;;14.53;;
63346;SDS011;49472;49.880;8.650;2022-11-15T07:07:15;16.50;;;15.13;;
63346;SDS011;49472;49.880;8.650;2022-11-15T07:09:40;16.73;;;15.33;;
63346;SDS011;49472;49.880;8.650;2022-11-15T07:12:05;17.30;;;15.57;;
63346;SDS011;49472;49.880;8.650;2022-11-15T07:14:31;16.80;;;15.30;;
63346;SDS011;49472;49.880;8.650;2022-11-15T07:16:56;17.37;;;15.83;;
63346;SDS011;49472;49.880;8.650;2022-11-15T07:19:21;17.83;;;15.97;;
63346;SDS011;49472;49.880;8.650;2022-11-15T07:21:47;17.57;;;15.97;;
63346;SDS011;49472;49.880;8.650;2022-11-15T07:24:12;18.67;;;16.50;;
63346;SDS011;49472;49.880;8.650;2022-11-15T07:26:37;17.40;;;15.90;;
63346;SDS011;49472;49.880;8.650;2022-11-15T07:29:03;17.33;;;15.83;;
63346;SDS011;49472;49.880;8.650;2022-11-15T07:31:28;17.23;;;15.73;;
63346;SDS011;49472;49.880;8.650;2022-11-15T07:33:53;17.27;;;15.73;;
63346;SDS011;49472;49.880;8.650;2022-11-15T07:36:18;18.47;;;16.90;;
63346;SDS011;49472;49.880;8.650;2022-11-15T07:38:44;17.80;;;16.17;;
63346;SDS011;49472;49.880;8.650;2022-11-15T07:41:09;17.43;;;15.93;;
63346;SDS011;49472;49.880;8.650;2022-11-15T07:43:34;17.50;;;15.87;;
63346;SDS011;49472;49.880;8.650;2022-11-15T07:46:04;16.40;;;15.00;;
63346;SDS011;49472;49.880;8.650;2022-11-15T07:48:30;20.37;;;15.43;;
63346;SDS011;49472;49.880;8.650;2022-11-15T07:50:56;17.20;;;15.60;;
63346;SDS011;49472;49.880;8.650;2022-11-15T07:53:21;17.13;;;15.63;;
63346;SDS011;49472;49.880;8.650;2022-11-15T07:55:46;17.47;;;15.87;;
63346;SDS011;49472;49.880;8.650;2022-11-15T07:58:12;17.23;;;15.40;;
63346;SDS011;49472;49.880;8.650;2022-11-15T08:00:38;17.10;;;15.50;;
63346;SDS011;49472;49.880;8.650;2022-11-15T08:03:07;16.97;;;15.37;;
63346;SDS011;49472;49.880;8.650;2022-11-15T08:05:35;17.93;;;14.77;;
63346;SDS011;49472;49.880;8.650;2022-11-15T08:08:02;15.73;;;14.47;;
63346;SDS011;49472;49.880;8.650;2022-11-15T08:10:28;17.53;;;16.13;;
63346;SDS011;49472;49.880;8.650;2022-11-15T08:12:58;18.13;;;15.57;;
63346;SDS011;49472;49.880;8.650;2022-11-15T08:15:24;17.27;;;15.57;;
63346;SDS011;49472;49.880;8.650;2022-11-15T08:17:53;21.20;;;15.40;;
63346;SDS011;49472;49.880;8.650;2022-11-15T08:20:20;20.53;;;15.60;;
63346;SDS011;49472;49.880;8.650;2022-11-15T08:22:45;17.20;;;15.70;;
63346;SDS011;49472;49.880;8.650;2022-11-15T08:25:10;15.80;;;14.50;;
63346;SDS011;49472;49.880;8.650;2022-11-15T08:27:35;21.53;;;14.40;;
63346;SDS011;49472;49.880;8.650;2022-11-15T08:30:01;16.30;;;14.87;;
63346;SDS011;49472;49.880;8.650;2022-11-15T08:32:26;22.00;;;15.40;;
63346;SDS011;49472;49.880;8.650;2022-11-15T08:34:52;17.87;;;16.23;;
63346;SDS011;49472;49.880;8.650;2022-11-15T08:37:17;18.80;;;17.00;;
63346;SDS011;49472;49.880;8.650;2022-11-15T08:39:42;17.47;;;15.73;;
63346;SDS011;49472;49.880;8.650;2022-11-15T08:42:08;18.03;;;16.40;;
63346;SDS011;49472;49.880;8.650;2022-11-15T08:44:33;16.67;;;15.47;;
63346;SDS011;49472;49.880;8.650;2022-11-15T08:46:58;17.83;;;16.33;;
63346;SDS011;49472;49.880;8.650;2022-11-15T08:49:24;23.80;;;16.67;;
63346;SDS011;49472;49.880;8.650;2022-11-15T08:51:49;18.20;;;16.40;;
63346;SDS011;49472;49.880;8.650;2022-11-15T08:54:14;18.70;;;16.37;;
63346;SDS011;49472;49.880;8.650;2022-11-15T08:56:39;17.90;;;16.33;;
63346;SDS011;49472;49.880;8.650;2022-11-15T08:59:05;17.83;;;16.23;;
63346;SDS011;49472;49.880;8.650;2022-11-15T09:01:30;18.57;;;16.87;;
63346;SDS011;49472;49.880;8.650;2022-11-15T09:03:57;18.27;;;16.67;;
63346;SDS011;49472;49.880;8.650;2022-11-15T09:06:22;18.43;;;16.63;;
63346;SDS011;49472;49.880;8.650;2022-11-15T09:08:47;18.83;;;17.13;;
63346;SDS011;49472;49.880;8.650;2022-11-15T09:11:13;23.60;;;17.57;;
63346;SDS011;49472;49.880;8.650;2022-11-15T09:13:41;18.07;;;16.53;;
63346;SDS011;49472;49.880;8.650;2022-11-15T09:16:06;17.10;;;15.80;;
63346;SDS011;49472;49.880;8.650;2022-11-15T09:18:31;18.67;;;16.97;;
63346;SDS011;49472;49.880;8.650;2022-11-15T09:20:57;18.30;;;16.80;;
63346;SDS011;49472;49.880;8.650;2022-11-15T09:23:24;18.33;;;16.70;;
63346;SDS011;49472;49.880;8.650;2022-11-15T09:25:50;17.70;;;16.20;;
63346;SDS011;49472;49.880;8.650;2022-11-15T09:28:16;18.43;;;16.83;;
63346;SDS011;49472;49.880;8.650;2022-11-15T09:30:41;19.07;;;17.07;;
63346;SDS011;49472;49.880;8.650;2022-11-15T09:33:07;17.87;;;16.40;;
63346;SDS011;49472;49.880;8.650;2022-11-15T09:35:36;18.50;;;17.10;;
63346;SDS011;49472;49.880;8.650;2022-11-15T09:38:02;17.83;;;16.40;;
63346;SDS011;49472;49.880;8.650;2022-11-15T09:40:29;18.50;;;16.97;;
63346;SDS011;49472;49.880;8.650;2022-11-15T09:43:32;18.70;;;17.00;;
63346;SDS011;49472;49.880;8.650;2022-11-15T09:48:48;18.63;;;17.03;;
63346;SDS011;49472;49.880;8.650;2022-11-15T09:51:19;18.10;;;16.70;;
63346;SDS011;49472;49.880;8.650;2022-11-15T09:56:47;18.53;;;16.80;;
63346;SDS011;49472;49.880;8.650;2022-11-15T09:59:27;18.23;;;16.30;;
63346;SDS011;49472;49.880;8.650;2022-11-15T10:04:48;18.03;;;16.60;;
63346;SDS011;49472;49.880;8.650;2022-11-15T10:10:13;18.27;;;16.60;;
63346;SDS011;49472;49.880;8.650;2022-11-15T10:12:40;17.83;;;16.53;;
63346;SDS011;49472;49.880;8.650;2022-11-15T10:15:13;17.40;;;15.87;;
63346;SDS011;49472;49.880;8.650;2022-11-15T10:22:52;18.50;;;16.80;;
63346;SDS011;49472;49.880;8.650;2022-11-15T10:27:54;18.23;;;16.40;;
63346;SDS011;49472;49.880;8.650;2022-11-15T10:30:36;18.93;;;17.10;;
63346;SDS011;49472;49.880;8.650;2022-11-15T10:39:10;17.87;;;16.10;;
63346;SDS011;49472;49.880;8.650;2022-11-15T10:49:22;17.40;;;15.70;;
63346;SDS011;49472;49.880;8.650;2022-11-15T10:51:54;19.27;;;17.30;;
63346;SDS011;49472;49.880;8.650;2022-11-15T10:54:38;18.07;;;16.47;;
63346;SDS011;49472;49.880;8.650;2022-11-15T10:57:13;17.80;;;16.10;;
63346;SDS011;49472;49.880;8.650;2022-11-15T10:59:42;17.70;;;16.20;;
63346;SDS011;49472;49.880;8.650;2022-11-15T11:04:51;18.80;;;16.87;;
63346;SDS011;49472;49.880;8.650;2022-11-15T11:07:22;20.30;;;17.10;;
63346;SDS011;49472;49.880;8.650;2022-11-15T11:09:56;20.93;;;16.57;;
63346;SDS011;49472;49.880;8.650;2022-11-15T11:12:27;17.60;;;16.20;;
63346;SDS011;49472;49.880;8.650;2022-11-15T11:14:59;17.40;;;15.93;;
63346;SDS011;49472;49.880;8.650;2022-11-15T11:31:41;17.33;;;15.10;;
63346;SDS011;49472;49.880;8.650;2022-11-15T11:36:55;17.27;;;15.87;;
63346;SDS011;49472;49.880;8.650;2022-11-15T11:44:33;16.07;;;14.67;;
63346;SDS011;49472;49.880;8.650;2022-11-15T11:49:56;15.30;;;14.13;;
63346;SDS011;49472;49.880;8.650;2022-11-15T11:52:37;15.70;;;14.70;;
63346;SDS011;49472;49.880;8.650;2022-11-15T11:58:04;14.33;;;13.43;;
63346;SDS011;49472;49.880;8.650;2022-11-15T12:00:41;15.37;;;14.07;;
63346;SDS011;49472;49.880;8.650;2022-11-15T12:03:12;14.40;;;13.10;;
63346;SDS011;49472;49.880;8.650;2022-11-15T12:05:50;13.90;;;13.10;;
63346;SDS011;49472;49.880;8.650;2022-11-15T12:14:10;16.27;;;13.87;;
63346;SDS011;49472;49.880;8.650;2022-11-15T12:16:41;13.07;;;12.27;;
63346;SDS011;49472;49.880;8.650;2022-11-15T12:19:07;13.60;;;12.77;;
63346;SDS011;49472;49.880;8.650;2022-11-15T12:21:39;13.63;;;12.73;;
63346;SDS011;49472;49.880;8.650;2022-11-15T12:26:52;12.97;;;12.17;;
63346;SDS011;49472;49.880;8.650;2022-11-15T12:29:28;14.17;;;12.93;;
63346;SDS011;49472;49.880;8.650;2022-11-15T12:32:00;13.20;;;12.40;;
63346;SDS011;49472;49.880;8.650;2022-11-15T12:36:59;13.00;;;12.20;;
63346;SDS011;49472;49.880;8.650;2022-11-15T12:45:24;13.87;;;12.97;;
63346;SDS011;49472;49.880;8.650;2022-11-15T12:53:29;13.57;;;12.57;;
63346;SDS011;49472;49.880;8.650;2022-11-15T12:58:50;13.13;;;12.23;;
63346;SDS011;49472;49.880;8.650;2022-11-15T13:02:11;20.10;;;12.97;;
63346;SDS011;49472;49.880;8.650;2022-11-15T13:06:56;12.30;;;11.50;;
63346;SDS011;49472;49.880;8.650;2022-11-15T13:14:59;12.67;;;11.90;;
63346;SDS011;49472;49.880;8.650;2022-11-15T13:17:35;13.60;;;12.70;;
63346;SDS011;49472;49.880;8.650;2022-11-15T13:22:40;13.00;;;12.20;;
63346;SDS011;49472;49.880;8.650;2022-11-15T13:25:27;13.40;;;12.60;;
63346;SDS011;49472;49.880;8.650;2022-11-15T13:27:55;13.43;;;12.63;;
63346;SDS011;49472;49.880;8.650;2022-11-15T13:30:23;13.30;;;12.33;;
63346;SDS011;49472;49.880;8.650;2022-11-15T13:32:51;12.03;;;11.37;;
63346;SDS011;49472;49.880;8.650;2022-11-15T13:37:50;12.83;;;11.97;;
63346;SDS011;49472;49.880;8.650;2022-11-15T13:40:20;12.33;;;11.60;;
63346;SDS011;49472;49.880;8.650;2022-11-15T13:42:45;13.50;;;12.50;;
63346;SDS011;49472;49.880;8.650;2022-11-15T13:45:12;12.67;;;11.70;;
63346;SDS011;49472;49.880;8.650;2022-11-15T13:47:40;18.60;;;12.27;;
63346;SDS011;49472;49.880;8.650;2022-11-15T13:50:05;12.37;;;11.50;;
63346;SDS011;49472;49.880;8.650;2022-11-15T13:52:32;13.40;;;11.97;;
63346;SDS011;49472;49.880;8.650;2022-11-15T13:55:03;13.77;;;12.33;;
63346;SDS011;49472;49.880;8.650;2022-11-15T13:57:46;13.60;;;12.67;;
63346;SDS011;49472;49.880;8.650;2022-11-15T14:08:37;14.07;;;12.83;;
63346;SDS011;49472;49.880;8.650;2022-11-15T14:11:36;14.20;;;13.03;;
63346;SDS011;49472;49.880;8.650;2022-11-15T14:16:33;13.47;;;12.23;;
63346;SDS011;49472;49.880;8.650;2022-11-15T14:19:08;14.40;;;13.20;;
63346;SDS011;49472;49.880;8.650;2022-11-15T14:21:36;13.93;;;12.73;;
63346;SDS011;49472;49.880;8.650;2022-11-15T14:27:15;14.43;;;13.23;;
63346;SDS011;49472;49.880;8.650;2022-11-15T14:29:51;13.87;;;12.77;;
63346;SDS011;49472;49.880;8.650;2022-11-15T14:32:27;14.00;;;12.90;;
63346;SDS011;49472;49.880;8.650;2022-11-15T14:34:58;13.80;;;12.70;;
63346;SDS011;49472;49.880;8.650;2022-11-15T14:37:25;14.20;;;12.90;;
63346;SDS011;49472;49.880;8.650;2022-11-15T14:39:53;14.63;;;13.53;;
63346;SDS011;49472;49.880;8.650;2022-11-15T14:42:19;14.70;;;13.70;;
63346;SDS011;49472;49.880;8.650;2022-11-15T14:44:45;14.40;;;13.20;;
63346;SDS011;49472;49.880;8.650;2022-11-15T14:47:11;13.80;;;12.70;;
63346;SDS011;49472;49.880;8.650;2022-11-15T14:49:36;14.80;;;13.60;;
63346;SDS011;49472;49.880;8.650;2022-11-15T14:52:02;16.00;;;14.43;;
63346;SDS011;49472;49.880;8.650;2022-11-15T14:54:30;18.43;;;13.53;;
63346;SDS011;49472;49.880;8.650;2022-11-15T14:56:55;13.10;;;12.10;;
63346;SDS011;49472;49.880;8.650;2022-11-15T14:59:20;15.90;;;12.40;;
63346;SDS011;49472;49.880;8.650;2022-11-15T15:01:46;19.53;;;12.90;;
63346;SDS011;49472;49.880;8.650;2022-11-15T15:04:11;14.07;;;12.90;;
63346;SDS011;49472;49.880;8.650;2022-11-15T15:06:36;13.83;;;12.73;;
63346;SDS011;49472;49.880;8.650;2022-11-15T15:09:03;14.53;;;13.13;;
63346;SDS011;49472;49.880;8.650;2022-11-15T15:11:30;20.07;;;13.30;;
63346;SDS011;49472;49.880;8.650;2022-11-15T15:13:56;18.20;;;13.40;;
63346;SDS011;49472;49.880;8.650;2022-11-15T15:16:25;13.80;;;12.70;;
63346;SDS011;49472;49.880;8.650;2022-11-15T15:18:52;13.50;;;12.57;;
63346;SDS011;49472;49.880;8.650;2022-11-15T15:21:24;15.07;;;12.60;;
63346;SDS011;49472;49.880;8.650;2022-11-15T15:23:52;13.40;;;12.30;;
63346;SDS011;49472;49.880;8.650;2022-11-15T15:26:21;14.50;;;13.20;;
63346;SDS011;49472;49.880;8.650;2022-11-15T15:28:47;13.33;;;12.47;;
63346;SDS011;49472;49.880;8.650;2022-11-15T15:31:16;13.13;;;12.17;;
63346;SDS011;49472;49.880;8.650;2022-11-15T15:33:42;13.23;;;12.03;;
63346;SDS011;49472;49.880;8.650;2022-11-15T15:36:14;12.70;;;11.90;;
63346;SDS011;49472;49.880;8.650;2022-11-15T15:38:42;13.03;;;11.80;;
63346;SDS011;49472;49.880;8.650;2022-11-15T15:41:09;13.63;;;12.33;;
63346;SDS011;49472;49.880;8.650;2022-11-15T15:43:35;13.33;;;12.53;;
63346;SDS011;49472;49.880;8.650;2022-11-15T15:46:01;14.20;;;13.00;;
63346;SDS011;49472;49.880;8.650;2022-11-15T15:48:26;13.30;;;12.40;;
63346;SDS011;49472;49.880;8.650;2022-11-15T15:50:51;14.20;;;13.20;;
63346;SDS011;49472;49.880;8.650;2022-11-15T15:53:17;16.13;;;14.70;;
63346;SDS011;49472;49.880;8.650;2022-11-15T15:55:42;14.67;;;13.50;;
63346;SDS011;49472;49.880;8.650;2022-11-15T15:58:07;14.13;;;13.13;;
63346;SDS011;49472;49.880;8.650;2022-11-15T16:00:33;14.20;;;13.10;;
63346;SDS011;49472;49.880;8.650;2022-11-15T16:02:58;14.50;;;12.87;;
63346;SDS011;49472;49.880;8.650;2022-11-15T16:05:24;13.97;;;12.87;;
63346;SDS011;49472;49.880;8.650;2022-11-15T16:07:50;14.50;;;13.40;;
63346;SDS011;49472;49.880;8.650;2022-11-15T16:12:52;14.53;;;13.50;;
63346;SDS011;49472;49.880;8.650;2022-11-15T16:15:18;15.17;;;14.13;;
63346;SDS011;49472;49.880;8.650;2022-11-15T16:17:51;14.40;;;13.20;;
63346;SDS011;49472;49.880;8.650;2022-11-15T16:23:03;13.93;;;13.03;;
63346;SDS011;49472;49.880;8.650;2022-11-15T16:25:32;15.93;;;14.13;;
63346;SDS011;49472;49.880;8.650;2022-11-15T16:28:02;14.80;;;13.70;;
63346;SDS011;49472;49.880;8.650;2022-11-15T16:30:27;17.17;;;15.60;;
63346;SDS011;49472;49.880;8.650;2022-11-15T16:32:52;16.93;;;15.63;;
63346;SDS011;49472;49.880;8.650;2022-11-15T16:35:18;18.10;;;16.60;;
63346;SDS011;49472;49.880;8.650;2022-11-15T16:37:44;17.57;;;16.00;;
63346;SDS011;49472;49.880;8.650;2022-11-15T16:42:53;14.37;;;13.40;;
63346;SDS011;49472;49.880;8.650;2022-11-15T16:45:20;13.97;;;12.97;;
63346;SDS011;49472;49.880;8.650;2022-11-15T16:47:45;14.43;;;13.00;;
63346;SDS011;49472;49.880;8.650;2022-11-15T16:50:30;13.20;;;12.40;;
63346;SDS011;49472;49.880;8.650;2022-11-15T16:52:59;13.87;;;12.77;;
63346;SDS011;49472;49.880;8.650;2022-11-15T16:55:25;13.60;;;12.70;;
63346;SDS011;49472;49.880;8.650;2022-11-15T16:57:53;13.40;;;12.50;;
63346;SDS011;49472;49.880;8.650;2022-11-15T17:00:19;14.50;;;13.50;;
63346;SDS011;49472;49.880;8.650;2022-11-15T17:02:45;15.43;;;14.00;;
63346;SDS011;49472;49.880;8.650;2022-11-15T17:05:13;13.20;;;12.40;;
63346;SDS011;49472;49.880;8.650;2022-11-15T17:07:40;13.50;;;12.30;;
63346;SDS011;49472;49.880;8.650;2022-11-15T17:10:06;16.40;;;12.83;;
63346;SDS011;49472;49.880;8.650;2022-11-15T17:12:34;12.90;;;12.00;;